createdAt,value
2022-11-20T00:03:58.856Z,8.07
2022-11-20T00:09:02.556Z,8.60
2022-11-20T00:14:04.534Z,9.18
2022-11-20T00:19:06.268Z,8.15
2022-11-20T00:24:11.575Z,6.88
2022-11-20T00:29:13.368Z,6.97
2022-11-20T00:34:15.243Z,7.32
2022-11-20T00:39:17.019Z,7.80
2022-11-20T00:44:18.879Z,7.75
2022-11-20T00:49:20.850Z,8.10
2022-11-20T00:54:22.868Z,8.98
2022-11-20T00:59:24.608Z,9.10
2022-11-20T01:04:26.307Z,8.70
2022-11-20T01:09:28.014Z,9.40
2022-11-20T01:14:29.745Z,8.65
2022-11-20T01:19:31.522Z,9.38
2022-11-20T01:24:33.287Z,10.32
2022-11-20T01:29:35.023Z,10.50
2022-11-20T01:34:36.858Z,11.10
2022-11-20T01:39:39.168Z,10.63
2022-11-20T01:44:59.968Z,10.98
2022-11-20T01:50:24.898Z,10.98
2022-11-20T01:55:31.846Z,10.77
2022-11-20T02:00:33.959Z,12.00
2022-11-20T02:05:47.546Z,11.02
2022-11-20T02:10:49.262Z,10.60
2022-11-20T02:15:51.051Z,11.15
2022-11-20T02:20:59.905Z,10.80
2022-11-20T02:26:06.766Z,11.75
2022-11-20T02:31:08.776Z,11.07
2022-11-20T02:36:15.231Z,11.27
2022-11-20T02:41:16.990Z,10.85
2022-11-20T02:46:18.747Z,10.40
2022-11-20T02:51:20.470Z,11.35
2022-11-20T02:56:22.351Z,12.38
2022-11-20T03:01:24.374Z,12.50
2022-11-20T03:06:26.408Z,12.00
2022-11-20T03:11:28.368Z,12.40
2022-11-20T03:16:31.717Z,12.20
2022-11-20T03:21:36.835Z,12.35
2022-11-20T03:26:40.661Z,12.98
2022-11-20T03:31:42.630Z,12.73
2022-11-20T03:36:44.566Z,13.88
2022-11-20T03:41:46.355Z,13.77
2022-11-20T03:46:48.099Z,13.52
2022-11-20T03:51:49.810Z,13.57
2022-11-20T03:56:51.598Z,14.30
2022-11-20T04:01:53.358Z,13.45
2022-11-20T04:06:55.345Z,14.00
2022-11-20T04:11:57.150Z,14.93
2022-11-20T04:16:58.882Z,13.32
2022-11-20T04:22:00.758Z,13.90
2022-11-20T04:27:02.574Z,13.27
2022-11-20T04:32:04.380Z,13.75
2022-11-20T04:37:06.166Z,14.57
2022-11-20T04:42:28.906Z,13.27
2022-11-20T04:47:30.739Z,12.82
2022-11-20T04:52:32.456Z,14.27
2022-11-20T04:57:34.259Z,14.75
2022-11-20T05:02:36.010Z,13.82
2022-11-20T05:07:37.782Z,13.95
2022-11-20T05:12:39.564Z,13.20
2022-11-20T05:17:41.385Z,13.30
2022-11-20T05:22:44.005Z,13.55
2022-11-20T05:27:45.750Z,13.85
2022-11-20T05:32:47.508Z,13.38
2022-11-20T05:37:49.262Z,13.73
2022-11-20T05:42:50.985Z,13.25
2022-11-20T05:47:52.798Z,13.70
2022-11-20T05:52:54.564Z,12.88
2022-11-20T05:57:56.321Z,14.13
2022-11-20T06:02:58.136Z,13.38
2022-11-20T06:08:01.864Z,13.63
2022-11-20T06:13:03.729Z,13.52
2022-11-20T06:18:05.644Z,13.35
2022-11-20T06:23:07.402Z,13.52
2022-11-20T06:28:10.138Z,14.27
2022-11-20T06:33:11.836Z,14.60
2022-11-20T06:38:13.702Z,22.65
2022-11-20T06:43:15.469Z,18.25
2022-11-20T06:48:17.201Z,17.63
2022-11-20T06:53:19.269Z,14.52
2022-11-20T06:58:21.466Z,14.05
2022-11-20T07:03:23.298Z,15.32
2022-11-20T07:08:25.776Z,13.23
2022-11-20T07:13:29.073Z,13.05
2022-11-20T07:18:31.027Z,12.95
2022-11-20T07:23:32.841Z,12.50
2022-11-20T07:28:35.318Z,13.38
2022-11-20T07:33:37.045Z,11.68
2022-11-20T07:38:39.284Z,12.10
2022-11-20T07:43:41.720Z,12.40
2022-11-20T07:48:43.652Z,11.15
2022-11-20T07:53:45.450Z,10.75
2022-11-20T07:58:47.170Z,10.98
2022-11-20T08:03:48.927Z,11.38
2022-11-20T08:08:50.697Z,11.32
2022-11-20T08:14:11.066Z,11.18
2022-11-20T08:19:14.271Z,14.43
2022-11-20T08:24:16.089Z,13.88
2022-11-20T08:29:18.013Z,13.77
2022-11-20T08:34:19.853Z,13.77
2022-11-20T08:39:21.968Z,13.02
2022-11-20T08:44:24.017Z,13.73
2022-11-20T08:49:25.816Z,14.52
2022-11-20T08:54:27.610Z,13.73
2022-11-20T08:59:58.638Z,13.27
2022-11-20T09:04:51.707Z,14.50
2022-11-20T09:10:16.572Z,13.98
2022-11-20T09:15:15.184Z,15.90
2022-11-20T09:20:17.229Z,15.23
2022-11-20T09:25:19.286Z,14.43
2022-11-20T09:30:21.247Z,15.25
2022-11-20T09:35:23.108Z,17.80
2022-11-20T09:40:27.996Z,17.65
2022-11-20T09:45:35.115Z,18.30
2022-11-20T09:51:00.536Z,17.58
2022-11-20T09:56:04.430Z,20.20
2022-11-20T10:01:16.188Z,18.25
2022-11-20T10:06:21.918Z,18.05
2022-11-20T10:11:29.892Z,18.27
2022-11-20T10:16:52.872Z,20.58
2022-11-20T10:22:32.314Z,19.85
2022-11-20T10:28:11.935Z,20.95
2022-11-20T10:33:22.627Z,18.88
2022-11-20T10:38:38.469Z,19.65
2022-11-20T10:43:40.361Z,18.52
2022-11-20T10:48:45.270Z,19.33
2022-11-20T10:54:11.274Z,21.00
2022-11-20T10:59:28.212Z,19.63
2022-11-20T11:04:33.325Z,20.02
2022-11-20T11:09:40.546Z,20.77
2022-11-20T11:14:50.560Z,19.70
2022-11-20T11:20:07.776Z,19.80
2022-11-20T11:25:30.576Z,20.67
2022-11-20T11:30:44.265Z,20.58
2022-11-20T11:35:53.428Z,19.90
2022-11-20T11:40:57.524Z,20.67
2022-11-20T11:46:00.321Z,20.27
2022-11-20T11:51:02.082Z,21.38
2022-11-20T11:56:14.814Z,19.98
2022-11-20T12:01:39.441Z,19.88
2022-11-20T12:06:46.634Z,18.65
2022-11-20T12:11:55.377Z,19.38
2022-11-20T12:16:58.606Z,19.48
2022-11-20T12:22:21.407Z,19.73
2022-11-20T12:27:50.246Z,20.92
2022-11-20T12:33:10.470Z,18.15
2022-11-20T12:38:15.193Z,19.42
2022-11-20T12:43:43.334Z,19.90
2022-11-20T12:48:51.131Z,19.98
2022-11-20T12:54:23.306Z,19.80
2022-11-20T12:59:31.034Z,20.55
2022-11-20T13:04:59.606Z,19.42
2022-11-20T13:10:02.612Z,19.60
2022-11-20T13:15:17.326Z,18.58
2022-11-20T13:20:20.768Z,18.50
2022-11-20T13:25:40.481Z,19.45
2022-11-20T13:30:56.062Z,18.52
2022-11-20T13:36:23.114Z,19.05
2022-11-20T13:41:34.294Z,19.35
2022-11-20T13:46:45.438Z,19.05
2022-11-20T13:51:52.678Z,17.75
2022-11-20T13:57:13.196Z,18.63
2022-11-20T14:02:17.300Z,18.45
2022-11-20T14:07:22.560Z,18.75
2022-11-20T14:12:35.084Z,20.92
2022-11-20T14:17:37.722Z,17.75
2022-11-20T14:22:39.737Z,20.27
2022-11-20T14:27:44.290Z,18.60
2022-11-20T14:32:48.361Z,18.77
2022-11-20T14:37:50.258Z,20.77
2022-11-20T14:42:52.239Z,20.25
2022-11-20T14:47:57.645Z,17.60
2022-11-20T14:53:01.775Z,20.48
2022-11-20T14:58:24.502Z,16.70
2022-11-20T15:03:41.100Z,17.98
2022-11-20T15:08:52.907Z,19.33
2022-11-20T15:13:55.113Z,18.20
2022-11-20T15:18:57.230Z,18.10
2022-11-20T15:24:00.298Z,17.75
2022-11-20T15:29:02.069Z,18.95
2022-11-20T15:34:04.007Z,17.05
2022-11-20T15:39:08.066Z,16.65
2022-11-20T15:44:09.793Z,18.13
2022-11-20T15:49:14.557Z,18.45
2022-11-20T15:54:21.574Z,19.38
2022-11-20T15:59:23.678Z,16.35
2022-11-20T16:04:26.267Z,14.00
2022-11-20T16:09:28.268Z,14.07
2022-11-20T16:14:48.441Z,16.65
2022-11-20T16:19:50.168Z,15.73
2022-11-20T16:24:52.985Z,17.63
2022-11-20T16:29:54.807Z,15.25
2022-11-20T16:34:56.735Z,13.55
2022-11-20T16:39:58.466Z,15.27
2022-11-20T16:45:00.356Z,17.60
2022-11-20T16:50:03.482Z,14.25
2022-11-20T16:55:06.326Z,13.38
2022-11-20T17:00:08.950Z,14.27
2022-11-20T17:05:10.759Z,15.77
2022-11-20T17:10:12.559Z,13.68
2022-11-20T17:15:14.505Z,14.07
2022-11-20T17:20:16.589Z,12.23
2022-11-20T17:25:18.364Z,12.13
2022-11-20T17:30:20.344Z,12.65
2022-11-20T17:35:22.117Z,13.65
2022-11-20T17:40:27.525Z,13.95
2022-11-20T17:45:29.557Z,14.48
2022-11-20T17:50:31.329Z,13.38
2022-11-20T17:55:55.815Z,14.77
2022-11-20T18:01:05.989Z,13.95
2022-11-20T18:06:15.735Z,14.60
2022-11-20T18:11:29.283Z,13.00
2022-11-20T18:16:34.431Z,13.05
2022-11-20T18:21:36.589Z,14.10
2022-11-20T18:26:43.923Z,12.20
2022-11-20T18:31:46.340Z,13.27
2022-11-20T18:36:48.445Z,14.20
2022-11-20T18:42:09.336Z,12.80
2022-11-20T18:47:15.188Z,12.93
2022-11-20T18:52:18.696Z,13.18
2022-11-20T18:57:22.961Z,12.50
2022-11-20T19:02:25.091Z,14.05
2022-11-20T19:07:27.527Z,11.90
2022-11-20T19:12:29.496Z,13.55
2022-11-20T19:17:33.739Z,16.08
2022-11-20T19:22:35.507Z,14.25
2022-11-20T19:27:37.423Z,13.68
2022-11-20T19:32:39.408Z,14.10
2022-11-20T19:37:41.341Z,15.02
2022-11-20T19:42:43.280Z,13.77
2022-11-20T19:48:06.681Z,13.32
2022-11-20T19:53:07.687Z,12.43
2022-11-20T19:58:09.431Z,12.80
2022-11-20T20:03:11.446Z,13.63
2022-11-20T20:08:16.928Z,13.85
2022-11-20T20:13:18.965Z,13.38
2022-11-20T20:18:20.889Z,13.23
2022-11-20T20:23:22.671Z,12.73
2022-11-20T20:28:24.377Z,13.57
2022-11-20T20:33:26.230Z,12.52
2022-11-20T20:38:28.174Z,12.93
2022-11-20T20:43:30.369Z,13.07
2022-11-20T20:48:32.276Z,12.88
2022-11-20T20:53:34.046Z,14.20
2022-11-20T20:58:35.829Z,12.77
2022-11-20T21:03:38.278Z,13.27
2022-11-20T21:08:42.747Z,14.27
2022-11-20T21:13:47.570Z,15.40
2022-11-20T21:18:49.517Z,14.77
2022-11-20T21:23:53.508Z,13.18
2022-11-20T21:28:57.185Z,13.00
2022-11-20T21:33:59.056Z,12.82
2022-11-20T21:39:01.145Z,14.45
2022-11-20T21:49:26.474Z,13.13
2022-11-20T21:54:28.484Z,12.95
2022-11-20T21:59:30.200Z,12.82
2022-11-20T22:04:32.082Z,12.20
2022-11-20T22:09:33.911Z,13.35
2022-11-20T22:14:35.635Z,13.80
2022-11-20T22:19:37.372Z,12.10
2022-11-20T22:24:39.102Z,13.00
2022-11-20T22:29:40.870Z,14.00
2022-11-20T22:34:42.713Z,13.23
2022-11-20T22:39:44.666Z,12.15
2022-11-20T22:44:46.371Z,12.68
2022-11-20T22:49:48.126Z,11.50
2022-11-20T22:54:49.844Z,10.77
2022-11-20T22:59:51.570Z,11.25
2022-11-20T23:04:53.325Z,11.30
2022-11-20T23:09:55.050Z,12.93
2022-11-20T23:14:56.766Z,12.13
2022-11-20T23:19:58.534Z,11.90
2022-11-20T23:25:00.266Z,12.27
2022-11-20T23:30:02.058Z,11.63
2022-11-20T23:35:04.059Z,11.18
2022-11-20T23:40:06.534Z,11.50
2022-11-20T23:45:08.851Z,11.77
2022-11-20T23:50:10.815Z,13.02
2022-11-20T23:55:12.550Z,11.43
